Archival Weather

Chicago O'Hare International

Chicago, Illinois (KORD)

Report from: Friday, December 2, 2022 10:51 PM CST
Current time: Friday, June 21, 2024 3:58 AM CDT

Current weather – Weather history – Daily summaries
Weather forecast

Temperature10.0°C (50.0°F)
Wind chill7.0°C (44.7°F)
Dew point6.7°C (44.1°F)
Winds 13 kts (6.7 m/s, 15 mph) South-Southwest (210°)
Wind gusts 23 kts (11.8 m/s, 26.5 mph)
Visibility10 mi. (16.1 km)
Clouds Scattered clouds 2,000 ft. (610 m)
Ceiling: Broken clouds 4,000 ft. (1,219 m)
Overcast 7,000 ft. (2,134 m)
Altimeter29.71 in.Hg (1006 mB)
PrecipitiationTrace
Precip. events Rain ended 3:57 AM
Relative humidity80 %
Density altitude-223 ft. (-68 m)
Sea-level pressure100.6 kPa (1006 mB, 29.72 in.Hg)
Remarks Automated weather observing station with precipitation discriminator
Flight conditions Visual Meteorological Conditions
Raw dataKORD 030451Z 21013G23KT 10SM SCT020 BKN040 OVC070 10/07 A2971 RMK AO2 RAE0357 SLP064 P0000 T01000067
An error has occurred. This application may no longer respond until reloaded. Reload 🗙